Yilaxi, China
Current Conditions -  °F | °C
As of 2:00 AM on Monday 22 Dec 2014 (Local Time) from ZYCC Reporting Station
Scattered Clouds Scattered Clouds  
Wind Chill: -2°   Ceiling: Unl
Heat Index: 12°   Visibility: 6mi
Dew Point:   Wind: 11mph
Humidity: 62%   Direction: 250°WSW
Pressure: 29.88"   Gusts: NA
Location:  43.77°N, 126.12°E
Report Text: ZYCC 211800Z 25005MPS 9999 SCT030 M11/M17 Q1012 NOSIG
Loading
Personal Weather Stations






























Interactive Weather Map New forecast layout! Learn more

10-Day Weather Forecast

Advertisements
Track Severe Weather on mobile